sensor_id;sensor_type;location;lat;lon;timestamp;P1;durP1;ratioP1;P2;durP2;ratioP2
53391;SDS011;41667;51.922;8.850;2022-12-24T00:02:20;7.77;;;4.73;;
53391;SDS011;41667;51.922;8.850;2022-12-24T00:04:45;8.50;;;4.17;;
53391;SDS011;41667;51.922;8.850;2022-12-24T00:07:10;6.32;;;4.03;;
53391;SDS011;41667;51.922;8.850;2022-12-24T00:09:35;11.37;;;5.43;;
53391;SDS011;41667;51.922;8.850;2022-12-24T00:12:00;7.60;;;4.03;;
53391;SDS011;41667;51.922;8.850;2022-12-24T00:14:26;9.23;;;4.72;;
53391;SDS011;41667;51.922;8.850;2022-12-24T00:16:51;8.67;;;4.50;;
53391;SDS011;41667;51.922;8.850;2022-12-24T00:19:16;9.50;;;4.10;;
53391;SDS011;41667;51.922;8.850;2022-12-24T00:21:41;4.88;;;4.40;;
53391;SDS011;41667;51.922;8.850;2022-12-24T00:24:06;6.87;;;3.77;;
53391;SDS011;41667;51.922;8.850;2022-12-24T00:26:32;11.53;;;4.10;;
53391;SDS011;41667;51.922;8.850;2022-12-24T00:28:57;10.30;;;3.53;;
53391;SDS011;41667;51.922;8.850;2022-12-24T00:31:22;4.95;;;2.47;;
53391;SDS011;41667;51.922;8.850;2022-12-24T00:33:48;3.73;;;2.73;;
53391;SDS011;41667;51.922;8.850;2022-12-24T00:36:13;3.87;;;2.47;;
53391;SDS011;41667;51.922;8.850;2022-12-24T00:38:38;9.57;;;3.33;;
53391;SDS011;41667;51.922;8.850;2022-12-24T00:41:04;9.17;;;3.00;;
53391;SDS011;41667;51.922;8.850;2022-12-24T00:43:30;3.33;;;2.40;;
53391;SDS011;41667;51.922;8.850;2022-12-24T00:45:56;2.97;;;2.15;;
53391;SDS011;41667;51.922;8.850;2022-12-24T00:48:21;6.80;;;2.60;;
53391;SDS011;41667;51.922;8.850;2022-12-24T00:50:47;7.63;;;2.30;;
53391;SDS011;41667;51.922;8.850;2022-12-24T00:53:12;6.10;;;2.05;;
53391;SDS011;41667;51.922;8.850;2022-12-24T00:55:37;3.63;;;3.20;;
53391;SDS011;41667;51.922;8.850;2022-12-24T00:58:02;8.90;;;3.67;;
53391;SDS011;41667;51.922;8.850;2022-12-24T01:00:27;6.72;;;3.75;;
53391;SDS011;41667;51.922;8.850;2022-12-24T01:02:53;7.93;;;3.05;;
53391;SDS011;41667;51.922;8.850;2022-12-24T01:05:18;7.00;;;3.70;;
53391;SDS011;41667;51.922;8.850;2022-12-24T01:07:45;11.75;;;3.83;;
53391;SDS011;41667;51.922;8.850;2022-12-24T01:10:11;15.73;;;3.60;;
53391;SDS011;41667;51.922;8.850;2022-12-24T01:12:37;8.60;;;3.28;;
53391;SDS011;41667;51.922;8.850;2022-12-24T01:15:03;8.10;;;3.55;;
53391;SDS011;41667;51.922;8.850;2022-12-24T01:17:30;14.13;;;3.70;;
53391;SDS011;41667;51.922;8.850;2022-12-24T01:19:55;14.05;;;4.10;;
53391;SDS011;41667;51.922;8.850;2022-12-24T01:22:20;10.82;;;3.08;;
53391;SDS011;41667;51.922;8.850;2022-12-24T01:24:45;10.23;;;3.90;;
53391;SDS011;41667;51.922;8.850;2022-12-24T01:27:10;9.88;;;4.15;;
53391;SDS011;41667;51.922;8.850;2022-12-24T01:29:36;9.55;;;4.72;;
53391;SDS011;41667;51.922;8.850;2022-12-24T01:32:01;11.50;;;4.65;;
53391;SDS011;41667;51.922;8.850;2022-12-24T01:34:26;11.00;;;4.90;;
53391;SDS011;41667;51.922;8.850;2022-12-24T01:36:51;11.57;;;4.28;;
53391;SDS011;41667;51.922;8.850;2022-12-24T01:39:16;13.57;;;6.47;;
53391;SDS011;41667;51.922;8.850;2022-12-24T01:41:41;15.75;;;5.45;;
53391;SDS011;41667;51.922;8.850;2022-12-24T01:44:29;27.92;;;6.82;;
53391;SDS011;41667;51.922;8.850;2022-12-24T01:47:02;18.05;;;5.32;;
53391;SDS011;41667;51.922;8.850;2022-12-24T01:49:29;15.18;;;5.13;;
53391;SDS011;41667;51.922;8.850;2022-12-24T01:51:56;17.17;;;6.13;;
53391;SDS011;41667;51.922;8.850;2022-12-24T01:54:28;13.20;;;6.28;;
53391;SDS011;41667;51.922;8.850;2022-12-24T01:56:56;16.42;;;5.35;;
53391;SDS011;41667;51.922;8.850;2022-12-24T01:59:21;17.98;;;7.00;;
53391;SDS011;41667;51.922;8.850;2022-12-24T02:01:47;11.93;;;4.80;;
53391;SDS011;41667;51.922;8.850;2022-12-24T02:04:22;12.13;;;4.78;;
53391;SDS011;41667;51.922;8.850;2022-12-24T02:06:48;15.45;;;5.70;;
53391;SDS011;41667;51.922;8.850;2022-12-24T02:09:13;13.35;;;5.43;;
53391;SDS011;41667;51.922;8.850;2022-12-24T02:11:39;16.48;;;5.57;;
53391;SDS011;41667;51.922;8.850;2022-12-24T02:14:05;22.52;;;6.30;;
53391;SDS011;41667;51.922;8.850;2022-12-24T02:21:33;18.85;;;8.98;;
53391;SDS011;41667;51.922;8.850;2022-12-24T02:32:10;22.55;;;6.15;;
53391;SDS011;41667;51.922;8.850;2022-12-24T02:34:37;15.85;;;5.38;;
53391;SDS011;41667;51.922;8.850;2022-12-24T02:37:06;18.33;;;7.55;;
53391;SDS011;41667;51.922;8.850;2022-12-24T02:39:35;21.35;;;7.10;;
53391;SDS011;41667;51.922;8.850;2022-12-24T02:42:01;17.17;;;6.07;;
53391;SDS011;41667;51.922;8.850;2022-12-24T02:44:43;15.35;;;5.57;;
53391;SDS011;41667;51.922;8.850;2022-12-24T02:47:09;24.63;;;7.25;;
53391;SDS011;41667;51.922;8.850;2022-12-24T02:49:35;17.13;;;6.18;;
53391;SDS011;41667;51.922;8.850;2022-12-24T02:52:00;23.35;;;5.85;;
53391;SDS011;41667;51.922;8.850;2022-12-24T02:54:25;20.33;;;7.53;;
53391;SDS011;41667;51.922;8.850;2022-12-24T02:56:58;23.33;;;7.30;;
53391;SDS011;41667;51.922;8.850;2022-12-24T03:06:49;25.73;;;8.32;;
53391;SDS011;41667;51.922;8.850;2022-12-24T03:11:42;19.27;;;6.63;;
53391;SDS011;41667;51.922;8.850;2022-12-24T03:14:09;16.42;;;7.50;;
53391;SDS011;41667;51.922;8.850;2022-12-24T03:16:35;22.40;;;8.20;;
53391;SDS011;41667;51.922;8.850;2022-12-24T03:19:00;15.13;;;6.32;;
53391;SDS011;41667;51.922;8.850;2022-12-24T03:21:30;18.38;;;6.78;;
53391;SDS011;41667;51.922;8.850;2022-12-24T03:23:56;20.70;;;6.47;;
53391;SDS011;41667;51.922;8.850;2022-12-24T03:26:21;23.42;;;6.80;;
53391;SDS011;41667;51.922;8.850;2022-12-24T03:28:47;25.38;;;7.13;;
53391;SDS011;41667;51.922;8.850;2022-12-24T03:31:13;17.42;;;5.43;;
53391;SDS011;41667;51.922;8.850;2022-12-24T03:33:38;19.90;;;5.22;;
53391;SDS011;41667;51.922;8.850;2022-12-24T03:36:04;20.70;;;6.25;;
53391;SDS011;41667;51.922;8.850;2022-12-24T03:38:29;28.55;;;5.43;;
53391;SDS011;41667;51.922;8.850;2022-12-24T03:40:54;20.15;;;4.43;;
53391;SDS011;41667;51.922;8.850;2022-12-24T03:43:20;21.52;;;5.57;;
53391;SDS011;41667;51.922;8.850;2022-12-24T03:45:45;31.02;;;5.35;;
53391;SDS011;41667;51.922;8.850;2022-12-24T03:48:10;19.23;;;5.50;;
53391;SDS011;41667;51.922;8.850;2022-12-24T03:50:35;19.25;;;4.60;;
53391;SDS011;41667;51.922;8.850;2022-12-24T03:53:00;16.05;;;5.93;;
53391;SDS011;41667;51.922;8.850;2022-12-24T03:55:25;30.58;;;5.57;;
53391;SDS011;41667;51.922;8.850;2022-12-24T03:57:50;19.73;;;6.50;;
53391;SDS011;41667;51.922;8.850;2022-12-24T04:00:16;18.15;;;5.57;;
53391;SDS011;41667;51.922;8.850;2022-12-24T04:02:42;13.57;;;5.60;;
53391;SDS011;41667;51.922;8.850;2022-12-24T04:05:07;30.27;;;7.43;;
53391;SDS011;41667;51.922;8.850;2022-12-24T04:07:32;18.10;;;5.63;;
53391;SDS011;41667;51.922;8.850;2022-12-24T04:09:58;23.45;;;6.72;;
53391;SDS011;41667;51.922;8.850;2022-12-24T04:12:23;21.75;;;5.68;;
53391;SDS011;41667;51.922;8.850;2022-12-24T04:14:48;25.43;;;5.50;;
53391;SDS011;41667;51.922;8.850;2022-12-24T04:17:14;22.80;;;5.18;;
53391;SDS011;41667;51.922;8.850;2022-12-24T04:19:39;20.90;;;5.77;;
53391;SDS011;41667;51.922;8.850;2022-12-24T04:22:04;30.83;;;6.20;;
53391;SDS011;41667;51.922;8.850;2022-12-24T04:24:29;18.42;;;5.95;;
53391;SDS011;41667;51.922;8.850;2022-12-24T04:26:54;24.23;;;6.57;;
53391;SDS011;41667;51.922;8.850;2022-12-24T04:29:20;13.43;;;5.68;;
53391;SDS011;41667;51.922;8.850;2022-12-24T04:31:45;23.03;;;7.17;;
53391;SDS011;41667;51.922;8.850;2022-12-24T04:34:10;18.63;;;7.23;;
53391;SDS011;41667;51.922;8.850;2022-12-24T04:36:35;18.67;;;5.72;;
53391;SDS011;41667;51.922;8.850;2022-12-24T04:39:00;22.60;;;6.22;;
53391;SDS011;41667;51.922;8.850;2022-12-24T04:41:25;26.70;;;6.63;;
53391;SDS011;41667;51.922;8.850;2022-12-24T04:43:51;23.75;;;5.50;;
53391;SDS011;41667;51.922;8.850;2022-12-24T04:46:18;21.50;;;6.63;;
53391;SDS011;41667;51.922;8.850;2022-12-24T04:48:44;18.13;;;5.07;;
53391;SDS011;41667;51.922;8.850;2022-12-24T04:51:10;19.33;;;5.55;;
53391;SDS011;41667;51.922;8.850;2022-12-24T04:53:35;21.27;;;5.45;;
53391;SDS011;41667;51.922;8.850;2022-12-24T04:56:01;20.92;;;6.93;;
53391;SDS011;41667;51.922;8.850;2022-12-24T04:58:26;15.37;;;4.50;;
53391;SDS011;41667;51.922;8.850;2022-12-24T05:00:51;15.18;;;5.82;;
53391;SDS011;41667;51.922;8.850;2022-12-24T05:03:17;20.38;;;6.03;;
53391;SDS011;41667;51.922;8.850;2022-12-24T05:05:42;26.45;;;7.03;;
53391;SDS011;41667;51.922;8.850;2022-12-24T05:08:08;29.40;;;6.00;;
53391;SDS011;41667;51.922;8.850;2022-12-24T05:10:33;23.38;;;6.25;;
53391;SDS011;41667;51.922;8.850;2022-12-24T05:12:58;19.03;;;6.87;;
53391;SDS011;41667;51.922;8.850;2022-12-24T05:15:23;20.80;;;6.82;;
53391;SDS011;41667;51.922;8.850;2022-12-24T05:17:48;18.27;;;7.30;;
53391;SDS011;41667;51.922;8.850;2022-12-24T05:20:14;32.45;;;9.40;;
53391;SDS011;41667;51.922;8.850;2022-12-24T05:22:39;12.75;;;5.18;;
53391;SDS011;41667;51.922;8.850;2022-12-24T05:25:23;17.10;;;6.60;;
53391;SDS011;41667;51.922;8.850;2022-12-24T05:28:07;22.13;;;6.13;;
53391;SDS011;41667;51.922;8.850;2022-12-24T05:30:32;23.57;;;5.90;;
53391;SDS011;41667;51.922;8.850;2022-12-24T05:32:57;32.87;;;7.30;;
53391;SDS011;41667;51.922;8.850;2022-12-24T05:35:22;18.05;;;6.30;;
53391;SDS011;41667;51.922;8.850;2022-12-24T05:37:48;23.50;;;5.82;;
53391;SDS011;41667;51.922;8.850;2022-12-24T05:40:13;15.43;;;5.70;;
53391;SDS011;41667;51.922;8.850;2022-12-24T05:42:38;22.60;;;5.73;;
53391;SDS011;41667;51.922;8.850;2022-12-24T05:45:03;22.25;;;6.20;;
53391;SDS011;41667;51.922;8.850;2022-12-24T05:47:28;14.05;;;5.03;;
53391;SDS011;41667;51.922;8.850;2022-12-24T05:49:54;29.70;;;7.10;;
53391;SDS011;41667;51.922;8.850;2022-12-24T05:52:19;19.67;;;6.00;;
53391;SDS011;41667;51.922;8.850;2022-12-24T05:54:44;17.23;;;5.33;;
53391;SDS011;41667;51.922;8.850;2022-12-24T05:57:09;31.52;;;7.00;;
53391;SDS011;41667;51.922;8.850;2022-12-24T05:59:34;17.60;;;4.90;;
53391;SDS011;41667;51.922;8.850;2022-12-24T06:01:59;25.15;;;6.32;;
53391;SDS011;41667;51.922;8.850;2022-12-24T06:04:24;19.92;;;5.95;;
53391;SDS011;41667;51.922;8.850;2022-12-24T06:06:50;25.30;;;6.65;;
53391;SDS011;41667;51.922;8.850;2022-12-24T06:09:15;18.88;;;6.32;;
53391;SDS011;41667;51.922;8.850;2022-12-24T06:11:41;18.23;;;5.63;;
53391;SDS011;41667;51.922;8.850;2022-12-24T06:14:06;23.40;;;5.97;;
53391;SDS011;41667;51.922;8.850;2022-12-24T06:16:31;18.27;;;5.67;;
53391;SDS011;41667;51.922;8.850;2022-12-24T06:18:56;27.40;;;5.63;;
53391;SDS011;41667;51.922;8.850;2022-12-24T06:21:22;15.95;;;5.57;;
53391;SDS011;41667;51.922;8.850;2022-12-24T06:23:47;19.93;;;6.40;;
53391;SDS011;41667;51.922;8.850;2022-12-24T06:26:14;27.53;;;6.77;;
53391;SDS011;41667;51.922;8.850;2022-12-24T06:28:39;20.27;;;5.88;;
53391;SDS011;41667;51.922;8.850;2022-12-24T06:31:05;28.40;;;6.30;;
53391;SDS011;41667;51.922;8.850;2022-12-24T06:33:30;25.90;;;5.95;;
53391;SDS011;41667;51.922;8.850;2022-12-24T06:35:56;31.25;;;6.97;;
53391;SDS011;41667;51.922;8.850;2022-12-24T06:38:21;18.67;;;5.90;;
53391;SDS011;41667;51.922;8.850;2022-12-24T06:40:46;16.33;;;5.83;;
53391;SDS011;41667;51.922;8.850;2022-12-24T06:43:12;25.83;;;6.05;;
53391;SDS011;41667;51.922;8.850;2022-12-24T06:45:37;19.85;;;5.60;;
53391;SDS011;41667;51.922;8.850;2022-12-24T06:48:03;23.13;;;6.80;;
53391;SDS011;41667;51.922;8.850;2022-12-24T06:50:28;27.98;;;6.40;;
53391;SDS011;41667;51.922;8.850;2022-12-24T06:52:53;21.33;;;5.67;;
53391;SDS011;41667;51.922;8.850;2022-12-24T06:55:18;25.30;;;6.37;;
53391;SDS011;41667;51.922;8.850;2022-12-24T06:57:44;16.38;;;5.53;;
53391;SDS011;41667;51.922;8.850;2022-12-24T07:00:09;42.45;;;7.50;;
53391;SDS011;41667;51.922;8.850;2022-12-24T07:02:37;22.65;;;6.88;;
53391;SDS011;41667;51.922;8.850;2022-12-24T07:05:03;35.00;;;7.28;;
53391;SDS011;41667;51.922;8.850;2022-12-24T07:07:28;17.50;;;6.03;;
53391;SDS011;41667;51.922;8.850;2022-12-24T07:09:54;25.02;;;8.93;;
53391;SDS011;41667;51.922;8.850;2022-12-24T07:12:19;29.30;;;7.65;;
53391;SDS011;41667;51.922;8.850;2022-12-24T07:14:44;28.42;;;9.13;;
53391;SDS011;41667;51.922;8.850;2022-12-24T07:17:09;30.00;;;7.60;;
53391;SDS011;41667;51.922;8.850;2022-12-24T07:19:34;21.85;;;8.00;;
53391;SDS011;41667;51.922;8.850;2022-12-24T07:22:00;23.70;;;8.10;;
53391;SDS011;41667;51.922;8.850;2022-12-24T07:24:25;34.70;;;11.60;;
53391;SDS011;41667;51.922;8.850;2022-12-24T07:26:50;90.20;;;25.27;;
53391;SDS011;41667;51.922;8.850;2022-12-24T07:29:15;25.40;;;9.60;;
53391;SDS011;41667;51.922;8.850;2022-12-24T07:31:41;26.90;;;10.93;;
53391;SDS011;41667;51.922;8.850;2022-12-24T07:34:06;27.83;;;9.65;;
53391;SDS011;41667;51.922;8.850;2022-12-24T07:36:31;31.75;;;9.90;;
53391;SDS011;41667;51.922;8.850;2022-12-24T07:38:56;29.60;;;8.65;;
53391;SDS011;41667;51.922;8.850;2022-12-24T07:41:21;31.08;;;10.00;;
53391;SDS011;41667;51.922;8.850;2022-12-24T07:43:47;36.33;;;9.98;;
53391;SDS011;41667;51.922;8.850;2022-12-24T07:46:12;37.40;;;10.60;;
53391;SDS011;41667;51.922;8.850;2022-12-24T07:48:37;19.00;;;8.93;;
53391;SDS011;41667;51.922;8.850;2022-12-24T07:51:02;32.10;;;10.18;;
53391;SDS011;41667;51.922;8.850;2022-12-24T07:53:28;25.40;;;9.85;;
53391;SDS011;41667;51.922;8.850;2022-12-24T07:55:53;21.98;;;8.95;;
53391;SDS011;41667;51.922;8.850;2022-12-24T07:58:19;17.63;;;7.45;;
53391;SDS011;41667;51.922;8.850;2022-12-24T08:00:44;13.55;;;7.13;;
53391;SDS011;41667;51.922;8.850;2022-12-24T08:03:13;23.92;;;7.88;;
53391;SDS011;41667;51.922;8.850;2022-12-24T08:05:40;22.50;;;7.63;;
53391;SDS011;41667;51.922;8.850;2022-12-24T08:08:05;14.75;;;6.50;;
53391;SDS011;41667;51.922;8.850;2022-12-24T08:10:30;20.23;;;6.97;;
53391;SDS011;41667;51.922;8.850;2022-12-24T08:12:55;29.00;;;9.27;;
53391;SDS011;41667;51.922;8.850;2022-12-24T08:15:20;18.52;;;8.50;;
53391;SDS011;41667;51.922;8.850;2022-12-24T08:17:45;24.80;;;9.82;;
53391;SDS011;41667;51.922;8.850;2022-12-24T08:20:10;17.38;;;9.75;;
53391;SDS011;41667;51.922;8.850;2022-12-24T08:22:36;25.17;;;10.40;;
53391;SDS011;41667;51.922;8.850;2022-12-24T08:25:01;24.35;;;11.35;;
53391;SDS011;41667;51.922;8.850;2022-12-24T08:27:26;30.93;;;9.73;;
53391;SDS011;41667;51.922;8.850;2022-12-24T08:29:51;22.90;;;10.13;;
53391;SDS011;41667;51.922;8.850;2022-12-24T08:32:17;33.05;;;11.63;;
53391;SDS011;41667;51.922;8.850;2022-12-24T08:34:42;30.35;;;11.77;;
53391;SDS011;41667;51.922;8.850;2022-12-24T08:37:07;21.50;;;10.00;;
53391;SDS011;41667;51.922;8.850;2022-12-24T08:39:32;35.47;;;10.45;;
53391;SDS011;41667;51.922;8.850;2022-12-24T08:41:57;16.03;;;8.33;;
53391;SDS011;41667;51.922;8.850;2022-12-24T08:44:22;21.17;;;9.38;;
53391;SDS011;41667;51.922;8.850;2022-12-24T08:46:47;25.95;;;10.57;;
53391;SDS011;41667;51.922;8.850;2022-12-24T08:49:13;19.00;;;8.88;;
53391;SDS011;41667;51.922;8.850;2022-12-24T08:51:38;25.90;;;11.17;;
53391;SDS011;41667;51.922;8.850;2022-12-24T08:54:03;26.63;;;10.90;;
53391;SDS011;41667;51.922;8.850;2022-12-24T08:56:28;30.20;;;12.73;;
53391;SDS011;41667;51.922;8.850;2022-12-24T08:58:53;24.43;;;9.47;;
53391;SDS011;41667;51.922;8.850;2022-12-24T09:01:19;23.60;;;10.05;;
53391;SDS011;41667;51.922;8.850;2022-12-24T09:03:44;27.00;;;8.43;;
53391;SDS011;41667;51.922;8.850;2022-12-24T09:06:10;27.42;;;9.95;;
53391;SDS011;41667;51.922;8.850;2022-12-24T09:08:35;22.23;;;9.68;;
53391;SDS011;41667;51.922;8.850;2022-12-24T09:11:14;20.23;;;8.10;;
53391;SDS011;41667;51.922;8.850;2022-12-24T09:13:39;32.00;;;10.35;;
53391;SDS011;41667;51.922;8.850;2022-12-24T09:16:05;26.48;;;9.75;;
53391;SDS011;41667;51.922;8.850;2022-12-24T09:18:30;19.30;;;8.80;;
53391;SDS011;41667;51.922;8.850;2022-12-24T09:20:59;28.45;;;8.77;;
53391;SDS011;41667;51.922;8.850;2022-12-24T09:23:24;20.45;;;8.45;;
53391;SDS011;41667;51.922;8.850;2022-12-24T09:25:49;23.02;;;8.35;;
53391;SDS011;41667;51.922;8.850;2022-12-24T09:28:15;23.15;;;7.80;;
53391;SDS011;41667;51.922;8.850;2022-12-24T09:30:40;23.38;;;8.23;;
53391;SDS011;41667;51.922;8.850;2022-12-24T09:33:05;21.13;;;5.25;;
53391;SDS011;41667;51.922;8.850;2022-12-24T09:35:30;11.25;;;6.85;;
53391;SDS011;41667;51.922;8.850;2022-12-24T09:37:55;21.95;;;8.30;;
53391;SDS011;41667;51.922;8.850;2022-12-24T09:40:28;16.67;;;7.00;;
53391;SDS011;41667;51.922;8.850;2022-12-24T09:42:56;22.00;;;7.85;;
53391;SDS011;41667;51.922;8.850;2022-12-24T09:45:23;19.10;;;7.17;;
53391;SDS011;41667;51.922;8.850;2022-12-24T09:47:56;25.58;;;7.60;;
53391;SDS011;41667;51.922;8.850;2022-12-24T09:50:25;29.58;;;9.30;;
53391;SDS011;41667;51.922;8.850;2022-12-24T09:52:53;19.38;;;8.65;;
53391;SDS011;41667;51.922;8.850;2022-12-24T09:57:43;19.15;;;7.38;;
53391;SDS011;41667;51.922;8.850;2022-12-24T10:00:42;18.42;;;8.20;;
53391;SDS011;41667;51.922;8.850;2022-12-24T10:03:04;27.25;;;9.35;;
53391;SDS011;41667;51.922;8.850;2022-12-24T10:05:37;27.38;;;6.88;;
53391;SDS011;41667;51.922;8.850;2022-12-24T10:08:14;19.73;;;6.28;;
53391;SDS011;41667;51.922;8.850;2022-12-24T10:15:39;17.88;;;7.72;;
53391;SDS011;41667;51.922;8.850;2022-12-24T10:20:55;15.40;;;7.68;;
53391;SDS011;41667;51.922;8.850;2022-12-24T10:23:24;14.38;;;6.30;;
53391;SDS011;41667;51.922;8.850;2022-12-24T10:26:00;16.58;;;6.00;;
53391;SDS011;41667;51.922;8.850;2022-12-24T10:28:38;21.65;;;6.60;;
53391;SDS011;41667;51.922;8.850;2022-12-24T10:31:06;19.70;;;7.45;;
53391;SDS011;41667;51.922;8.850;2022-12-24T10:33:33;13.73;;;4.60;;
53391;SDS011;41667;51.922;8.850;2022-12-24T10:36:00;21.35;;;7.78;;
53391;SDS011;41667;51.922;8.850;2022-12-24T10:38:26;21.50;;;7.80;;
53391;SDS011;41667;51.922;8.850;2022-12-24T10:40:52;20.10;;;7.13;;
53391;SDS011;41667;51.922;8.850;2022-12-24T10:43:19;19.65;;;7.03;;
53391;SDS011;41667;51.922;8.850;2022-12-24T10:45:46;21.30;;;7.45;;
53391;SDS011;41667;51.922;8.850;2022-12-24T10:48:15;15.52;;;6.35;;
53391;SDS011;41667;51.922;8.850;2022-12-24T10:50:51;17.63;;;7.28;;
53391;SDS011;41667;51.922;8.850;2022-12-24T10:53:18;32.30;;;7.28;;
53391;SDS011;41667;51.922;8.850;2022-12-24T10:55:46;19.52;;;6.82;;
53391;SDS011;41667;51.922;8.850;2022-12-24T10:58:20;26.30;;;7.30;;
53391;SDS011;41667;51.922;8.850;2022-12-24T11:00:49;19.65;;;6.60;;
53391;SDS011;41667;51.922;8.850;2022-12-24T11:05:43;22.30;;;7.30;;
53391;SDS011;41667;51.922;8.850;2022-12-24T11:10:38;23.65;;;8.27;;
53391;SDS011;41667;51.922;8.850;2022-12-24T11:13:04;21.77;;;7.03;;
53391;SDS011;41667;51.922;8.850;2022-12-24T11:15:32;19.20;;;7.53;;
53391;SDS011;41667;51.922;8.850;2022-12-24T11:18:12;22.58;;;6.72;;
53391;SDS011;41667;51.922;8.850;2022-12-24T11:20:38;20.80;;;7.05;;
53391;SDS011;41667;51.922;8.850;2022-12-24T11:23:03;14.38;;;6.90;;
53391;SDS011;41667;51.922;8.850;2022-12-24T11:25:29;16.38;;;6.10;;
53391;SDS011;41667;51.922;8.850;2022-12-24T11:28:11;21.33;;;6.45;;
53391;SDS011;41667;51.922;8.850;2022-12-24T11:30:37;25.00;;;6.78;;
53391;SDS011;41667;51.922;8.850;2022-12-24T11:35:28;20.30;;;7.10;;
53391;SDS011;41667;51.922;8.850;2022-12-24T11:40:35;16.60;;;5.57;;
53391;SDS011;41667;51.922;8.850;2022-12-24T11:43:02;23.63;;;7.28;;
53391;SDS011;41667;51.922;8.850;2022-12-24T11:45:28;14.02;;;6.55;;
53391;SDS011;41667;51.922;8.850;2022-12-24T11:47:54;18.17;;;6.43;;
53391;SDS011;41667;51.922;8.850;2022-12-24T11:52:49;13.27;;;5.70;;
53391;SDS011;41667;51.922;8.850;2022-12-24T11:55:18;22.60;;;5.18;;
53391;SDS011;41667;51.922;8.850;2022-12-24T11:57:52;17.83;;;5.70;;
53391;SDS011;41667;51.922;8.850;2022-12-24T12:00:20;19.38;;;7.80;;
53391;SDS011;41667;51.922;8.850;2022-12-24T12:02:45;14.20;;;4.90;;
53391;SDS011;41667;51.922;8.850;2022-12-24T12:05:15;9.63;;;4.85;;
53391;SDS011;41667;51.922;8.850;2022-12-24T12:07:41;19.33;;;6.45;;
53391;SDS011;41667;51.922;8.850;2022-12-24T12:10:09;15.93;;;5.57;;
53391;SDS011;41667;51.922;8.850;2022-12-24T12:12:42;26.73;;;5.80;;
53391;SDS011;41667;51.922;8.850;2022-12-24T12:20:18;18.02;;;6.22;;
53391;SDS011;41667;51.922;8.850;2022-12-24T12:22:58;15.18;;;6.50;;
53391;SDS011;41667;51.922;8.850;2022-12-24T12:25:25;19.60;;;6.60;;
53391;SDS011;41667;51.922;8.850;2022-12-24T12:27:51;24.23;;;7.68;;
53391;SDS011;41667;51.922;8.850;2022-12-24T12:30:19;21.10;;;6.55;;
53391;SDS011;41667;51.922;8.850;2022-12-24T12:37:39;18.60;;;6.95;;
53391;SDS011;41667;51.922;8.850;2022-12-24T12:40:11;22.25;;;6.63;;
53391;SDS011;41667;51.922;8.850;2022-12-24T12:42:37;17.63;;;7.68;;
53391;SDS011;41667;51.922;8.850;2022-12-24T12:50:13;12.95;;;5.88;;
53391;SDS011;41667;51.922;8.850;2022-12-24T12:57:52;15.98;;;6.05;;
53391;SDS011;41667;51.922;8.850;2022-12-24T13:00:19;20.58;;;6.47;;
53391;SDS011;41667;51.922;8.850;2022-12-24T13:15:48;18.52;;;6.70;;
53391;SDS011;41667;51.922;8.850;2022-12-24T13:18:24;13.63;;;7.00;;
53391;SDS011;41667;51.922;8.850;2022-12-24T13:20:49;20.00;;;6.05;;
53391;SDS011;41667;51.922;8.850;2022-12-24T13:23:24;16.17;;;6.82;;
53391;SDS011;41667;51.922;8.850;2022-12-24T13:25:51;20.60;;;7.32;;
53391;SDS011;41667;51.922;8.850;2022-12-24T13:36:02;17.08;;;6.32;;
53391;SDS011;41667;51.922;8.850;2022-12-24T13:40:53;19.60;;;7.78;;
53391;SDS011;41667;51.922;8.850;2022-12-24T13:43:18;19.35;;;6.30;;
53391;SDS011;41667;51.922;8.850;2022-12-24T13:45:45;13.30;;;5.53;;
53391;SDS011;41667;51.922;8.850;2022-12-24T13:50:36;17.42;;;5.95;;
53391;SDS011;41667;51.922;8.850;2022-12-24T13:53:02;15.10;;;6.47;;
53391;SDS011;41667;51.922;8.850;2022-12-24T13:55:28;17.33;;;6.05;;
53391;SDS011;41667;51.922;8.850;2022-12-24T13:57:55;13.93;;;5.85;;
53391;SDS011;41667;51.922;8.850;2022-12-24T14:07:49;23.83;;;5.65;;
53391;SDS011;41667;51.922;8.850;2022-12-24T14:10:57;15.68;;;6.35;;
53391;SDS011;41667;51.922;8.850;2022-12-24T14:13:02;18.58;;;5.28;;
53391;SDS011;41667;51.922;8.850;2022-12-24T14:18:15;20.90;;;6.30;;
53391;SDS011;41667;51.922;8.850;2022-12-24T14:20:41;21.67;;;6.00;;
53391;SDS011;41667;51.922;8.850;2022-12-24T14:23:06;23.67;;;6.60;;
53391;SDS011;41667;51.922;8.850;2022-12-24T14:25:38;18.85;;;6.35;;
53391;SDS011;41667;51.922;8.850;2022-12-24T14:28:06;19.33;;;6.57;;
53391;SDS011;41667;51.922;8.850;2022-12-24T14:33:02;22.60;;;5.75;;
53391;SDS011;41667;51.922;8.850;2022-12-24T14:35:34;20.53;;;7.63;;
53391;SDS011;41667;51.922;8.850;2022-12-24T14:38:01;14.75;;;5.88;;
53391;SDS011;41667;51.922;8.850;2022-12-24T14:40:30;25.40;;;6.35;;
53391;SDS011;41667;51.922;8.850;2022-12-24T14:45:32;19.63;;;6.75;;
53391;SDS011;41667;51.922;8.850;2022-12-24T14:48:04;18.92;;;6.45;;
53391;SDS011;41667;51.922;8.850;2022-12-24T14:50:38;21.75;;;6.65;;
53391;SDS011;41667;51.922;8.850;2022-12-24T14:53:11;21.92;;;6.88;;
53391;SDS011;41667;51.922;8.850;2022-12-24T14:55:42;17.58;;;6.82;;
53391;SDS011;41667;51.922;8.850;2022-12-24T14:58:20;17.92;;;8.57;;
53391;SDS011;41667;51.922;8.850;2022-12-24T15:00:45;21.75;;;7.90;;
53391;SDS011;41667;51.922;8.850;2022-12-24T15:03:12;17.67;;;7.10;;
53391;SDS011;41667;51.922;8.850;2022-12-24T15:05:38;21.05;;;7.00;;
53391;SDS011;41667;51.922;8.850;2022-12-24T15:08:08;16.33;;;6.90;;
53391;SDS011;41667;51.922;8.850;2022-12-24T15:10:36;23.13;;;7.25;;
53391;SDS011;41667;51.922;8.850;2022-12-24T15:13:25;20.35;;;6.47;;
53391;SDS011;41667;51.922;8.850;2022-12-24T15:15:47;27.60;;;7.28;;
53391;SDS011;41667;51.922;8.850;2022-12-24T15:18:14;20.48;;;6.47;;
53391;SDS011;41667;51.922;8.850;2022-12-24T15:20:41;17.67;;;6.88;;
53391;SDS011;41667;51.922;8.850;2022-12-24T15:23:15;14.68;;;5.53;;
53391;SDS011;41667;51.922;8.850;2022-12-24T15:25:41;23.15;;;7.75;;
53391;SDS011;41667;51.922;8.850;2022-12-24T15:28:14;19.63;;;6.90;;
53391;SDS011;41667;51.922;8.850;2022-12-24T15:30:40;21.17;;;6.15;;
53391;SDS011;41667;51.922;8.850;2022-12-24T15:33:05;14.33;;;5.73;;
53391;SDS011;41667;51.922;8.850;2022-12-24T15:37:58;15.75;;;6.63;;
53391;SDS011;41667;51.922;8.850;2022-12-24T15:40:24;18.27;;;5.75;;
53391;SDS011;41667;51.922;8.850;2022-12-24T15:42:49;22.27;;;6.65;;
53391;SDS011;41667;51.922;8.850;2022-12-24T15:45:18;20.02;;;6.65;;
53391;SDS011;41667;51.922;8.850;2022-12-24T15:47:49;18.50;;;5.90;;
53391;SDS011;41667;51.922;8.850;2022-12-24T15:52:41;14.87;;;6.10;;
53391;SDS011;41667;51.922;8.850;2022-12-24T15:55:26;21.23;;;5.57;;
53391;SDS011;41667;51.922;8.850;2022-12-24T15:57:51;25.48;;;7.90;;
53391;SDS011;41667;51.922;8.850;2022-12-24T16:00:21;18.25;;;6.82;;
53391;SDS011;41667;51.922;8.850;2022-12-24T16:02:47;22.08;;;6.97;;
53391;SDS011;41667;51.922;8.850;2022-12-24T16:08:03;17.30;;;6.63;;
53391;SDS011;41667;51.922;8.850;2022-12-24T16:10:31;24.10;;;7.32;;
53391;SDS011;41667;51.922;8.850;2022-12-24T16:12:56;19.25;;;6.07;;
53391;SDS011;41667;51.922;8.850;2022-12-24T16:15:22;22.63;;;7.47;;
53391;SDS011;41667;51.922;8.850;2022-12-24T16:17:47;18.80;;;7.18;;
53391;SDS011;41667;51.922;8.850;2022-12-24T16:20:17;15.32;;;6.43;;
53391;SDS011;41667;51.922;8.850;2022-12-24T16:22:44;21.17;;;7.05;;
53391;SDS011;41667;51.922;8.850;2022-12-24T16:25:23;17.77;;;6.50;;
53391;SDS011;41667;51.922;8.850;2022-12-24T16:27:49;15.45;;;6.38;;
53391;SDS011;41667;51.922;8.850;2022-12-24T16:30:14;17.27;;;5.82;;